sensor_id;sensor_type;location;lat;lon;timestamp;P1;durP1;ratioP1;P2;durP2;ratioP2
10645;SDS011;5371;49.782;9.932;2024-03-08T00:01:21;25.67;;;14.63;;
10645;SDS011;5371;49.782;9.932;2024-03-08T00:03:48;23.93;;;15.30;;
10645;SDS011;5371;49.782;9.932;2024-03-08T00:06:16;24.07;;;14.17;;
10645;SDS011;5371;49.782;9.932;2024-03-08T00:08:46;23.77;;;14.13;;
10645;SDS011;5371;49.782;9.932;2024-03-08T00:11:14;24.87;;;15.10;;
10645;SDS011;5371;49.782;9.932;2024-03-08T00:13:43;24.37;;;14.33;;
10645;SDS011;5371;49.782;9.932;2024-03-08T00:16:10;26.13;;;15.07;;
10645;SDS011;5371;49.782;9.932;2024-03-08T00:18:37;27.43;;;15.23;;
10645;SDS011;5371;49.782;9.932;2024-03-08T00:21:05;27.10;;;15.10;;
10645;SDS011;5371;49.782;9.932;2024-03-08T00:23:35;23.90;;;13.73;;
10645;SDS011;5371;49.782;9.932;2024-03-08T00:26:05;24.40;;;14.10;;
10645;SDS011;5371;49.782;9.932;2024-03-08T00:28:32;21.57;;;14.17;;
10645;SDS011;5371;49.782;9.932;2024-03-08T00:31:01;23.60;;;14.90;;
10645;SDS011;5371;49.782;9.932;2024-03-08T00:33:29;23.30;;;13.70;;
10645;SDS011;5371;49.782;9.932;2024-03-08T00:35:56;29.17;;;14.63;;
10645;SDS011;5371;49.782;9.932;2024-03-08T00:38:23;25.83;;;14.90;;
10645;SDS011;5371;49.782;9.932;2024-03-08T00:40:50;23.03;;;14.77;;
10645;SDS011;5371;49.782;9.932;2024-03-08T00:43:17;26.77;;;14.00;;
10645;SDS011;5371;49.782;9.932;2024-03-08T00:45:44;24.70;;;15.70;;
10645;SDS011;5371;49.782;9.932;2024-03-08T00:48:16;33.37;;;19.80;;
10645;SDS011;5371;49.782;9.932;2024-03-08T00:50:43;26.90;;;14.87;;
10645;SDS011;5371;49.782;9.932;2024-03-08T00:53:11;23.60;;;14.33;;
10645;SDS011;5371;49.782;9.932;2024-03-08T00:55:38;23.93;;;14.57;;
10645;SDS011;5371;49.782;9.932;2024-03-08T00:58:05;20.87;;;13.50;;
10645;SDS011;5371;49.782;9.932;2024-03-08T01:00:33;25.93;;;14.63;;
10645;SDS011;5371;49.782;9.932;2024-03-08T01:03:00;25.93;;;14.83;;
10645;SDS011;5371;49.782;9.932;2024-03-08T01:05:30;25.53;;;14.17;;
10645;SDS011;5371;49.782;9.932;2024-03-08T01:07:57;23.57;;;13.90;;
10645;SDS011;5371;49.782;9.932;2024-03-08T01:10:24;25.30;;;14.83;;
10645;SDS011;5371;49.782;9.932;2024-03-08T01:12:51;25.80;;;14.33;;
10645;SDS011;5371;49.782;9.932;2024-03-08T01:15:20;25.10;;;15.23;;
10645;SDS011;5371;49.782;9.932;2024-03-08T01:17:47;28.87;;;15.97;;
10645;SDS011;5371;49.782;9.932;2024-03-08T01:20:14;25.83;;;15.17;;
10645;SDS011;5371;49.782;9.932;2024-03-08T01:22:42;22.10;;;14.30;;
10645;SDS011;5371;49.782;9.932;2024-03-08T01:25:09;25.23;;;14.80;;
10645;SDS011;5371;49.782;9.932;2024-03-08T01:27:36;25.47;;;15.17;;
10645;SDS011;5371;49.782;9.932;2024-03-08T01:30:04;25.37;;;14.97;;
10645;SDS011;5371;49.782;9.932;2024-03-08T01:32:31;27.07;;;15.53;;
10645;SDS011;5371;49.782;9.932;2024-03-08T01:34:59;24.87;;;15.33;;
10645;SDS011;5371;49.782;9.932;2024-03-08T01:37:28;23.67;;;14.50;;
10645;SDS011;5371;49.782;9.932;2024-03-08T01:39:57;27.73;;;15.03;;
10645;SDS011;5371;49.782;9.932;2024-03-08T01:42:24;25.30;;;15.17;;
10645;SDS011;5371;49.782;9.932;2024-03-08T01:44:51;28.43;;;15.27;;
10645;SDS011;5371;49.782;9.932;2024-03-08T01:47:20;25.87;;;15.37;;
10645;SDS011;5371;49.782;9.932;2024-03-08T01:49:48;26.70;;;15.30;;
10645;SDS011;5371;49.782;9.932;2024-03-08T01:52:16;28.67;;;15.13;;
10645;SDS011;5371;49.782;9.932;2024-03-08T01:54:44;26.60;;;14.90;;
10645;SDS011;5371;49.782;9.932;2024-03-08T01:57:13;26.50;;;15.57;;
10645;SDS011;5371;49.782;9.932;2024-03-08T01:59:40;26.53;;;15.60;;
10645;SDS011;5371;49.782;9.932;2024-03-08T02:02:08;26.00;;;15.87;;
10645;SDS011;5371;49.782;9.932;2024-03-08T02:04:38;25.90;;;15.87;;
10645;SDS011;5371;49.782;9.932;2024-03-08T02:07:06;30.50;;;16.80;;
10645;SDS011;5371;49.782;9.932;2024-03-08T02:09:33;30.67;;;15.93;;
10645;SDS011;5371;49.782;9.932;2024-03-08T02:12:00;29.47;;;16.00;;
10645;SDS011;5371;49.782;9.932;2024-03-08T02:14:36;27.33;;;15.90;;
10645;SDS011;5371;49.782;9.932;2024-03-08T02:17:03;29.97;;;16.23;;
10645;SDS011;5371;49.782;9.932;2024-03-08T02:19:30;27.87;;;15.57;;
10645;SDS011;5371;49.782;9.932;2024-03-08T02:21:59;26.73;;;14.63;;
10645;SDS011;5371;49.782;9.932;2024-03-08T02:24:29;28.83;;;16.10;;
10645;SDS011;5371;49.782;9.932;2024-03-08T02:26:57;27.37;;;15.63;;
10645;SDS011;5371;49.782;9.932;2024-03-08T02:29:24;29.13;;;15.13;;
10645;SDS011;5371;49.782;9.932;2024-03-08T02:31:51;31.23;;;16.63;;
10645;SDS011;5371;49.782;9.932;2024-03-08T02:34:19;31.10;;;17.10;;
10645;SDS011;5371;49.782;9.932;2024-03-08T02:36:46;28.63;;;16.00;;
10645;SDS011;5371;49.782;9.932;2024-03-08T02:39:15;35.73;;;16.67;;
10645;SDS011;5371;49.782;9.932;2024-03-08T02:41:42;27.37;;;15.90;;
10645;SDS011;5371;49.782;9.932;2024-03-08T02:44:09;26.53;;;15.83;;
10645;SDS011;5371;49.782;9.932;2024-03-08T02:46:37;28.17;;;16.67;;
10645;SDS011;5371;49.782;9.932;2024-03-08T02:49:04;27.23;;;16.10;;
10645;SDS011;5371;49.782;9.932;2024-03-08T02:51:33;28.10;;;16.00;;
10645;SDS011;5371;49.782;9.932;2024-03-08T02:54:00;29.63;;;16.40;;
10645;SDS011;5371;49.782;9.932;2024-03-08T02:56:30;31.70;;;16.50;;
10645;SDS011;5371;49.782;9.932;2024-03-08T02:59:00;31.87;;;16.90;;
10645;SDS011;5371;49.782;9.932;2024-03-08T03:01:28;29.80;;;17.17;;
10645;SDS011;5371;49.782;9.932;2024-03-08T03:03:58;33.10;;;16.90;;
10645;SDS011;5371;49.782;9.932;2024-03-08T03:06:25;31.20;;;17.33;;
10645;SDS011;5371;49.782;9.932;2024-03-08T03:08:52;30.07;;;17.03;;
10645;SDS011;5371;49.782;9.932;2024-03-08T03:11:19;30.90;;;16.53;;
10645;SDS011;5371;49.782;9.932;2024-03-08T03:13:51;34.30;;;17.80;;
10645;SDS011;5371;49.782;9.932;2024-03-08T03:16:18;30.70;;;16.07;;
10645;SDS011;5371;49.782;9.932;2024-03-08T03:18:46;29.33;;;17.17;;
10645;SDS011;5371;49.782;9.932;2024-03-08T03:21:13;32.07;;;17.93;;
10645;SDS011;5371;49.782;9.932;2024-03-08T03:23:41;30.13;;;15.90;;
10645;SDS011;5371;49.782;9.932;2024-03-08T03:26:08;29.20;;;16.30;;
10645;SDS011;5371;49.782;9.932;2024-03-08T03:28:37;34.10;;;17.27;;
10645;SDS011;5371;49.782;9.932;2024-03-08T03:31:07;34.00;;;17.70;;
10645;SDS011;5371;49.782;9.932;2024-03-08T03:33:36;28.93;;;16.83;;
10645;SDS011;5371;49.782;9.932;2024-03-08T03:36:04;32.53;;;17.40;;
10645;SDS011;5371;49.782;9.932;2024-03-08T03:38:31;29.80;;;16.83;;
10645;SDS011;5371;49.782;9.932;2024-03-08T03:40:59;30.27;;;17.27;;
10645;SDS011;5371;49.782;9.932;2024-03-08T03:43:35;29.83;;;17.57;;
10645;SDS011;5371;49.782;9.932;2024-03-08T03:46:06;31.93;;;17.03;;
10645;SDS011;5371;49.782;9.932;2024-03-08T03:48:36;32.40;;;17.57;;
10645;SDS011;5371;49.782;9.932;2024-03-08T03:51:03;30.73;;;17.03;;
10645;SDS011;5371;49.782;9.932;2024-03-08T03:53:30;32.77;;;17.87;;
10645;SDS011;5371;49.782;9.932;2024-03-08T03:55:58;31.23;;;17.43;;
10645;SDS011;5371;49.782;9.932;2024-03-08T03:58:25;32.67;;;17.90;;
10645;SDS011;5371;49.782;9.932;2024-03-08T04:00:53;32.63;;;17.33;;
10645;SDS011;5371;49.782;9.932;2024-03-08T04:03:21;35.30;;;17.93;;
10645;SDS011;5371;49.782;9.932;2024-03-08T04:05:48;31.87;;;17.80;;
10645;SDS011;5371;49.782;9.932;2024-03-08T04:08:16;30.90;;;16.73;;
10645;SDS011;5371;49.782;9.932;2024-03-08T04:10:43;30.87;;;17.07;;
10645;SDS011;5371;49.782;9.932;2024-03-08T04:13:10;33.30;;;18.97;;
10645;SDS011;5371;49.782;9.932;2024-03-08T04:15:38;31.33;;;17.13;;
10645;SDS011;5371;49.782;9.932;2024-03-08T04:18:05;30.97;;;16.33;;
10645;SDS011;5371;49.782;9.932;2024-03-08T04:20:33;32.53;;;17.57;;
10645;SDS011;5371;49.782;9.932;2024-03-08T04:23:01;36.03;;;17.23;;
10645;SDS011;5371;49.782;9.932;2024-03-08T04:25:28;31.00;;;17.37;;
10645;SDS011;5371;49.782;9.932;2024-03-08T04:27:56;28.27;;;16.43;;
10645;SDS011;5371;49.782;9.932;2024-03-08T04:30:23;33.93;;;17.13;;
10645;SDS011;5371;49.782;9.932;2024-03-08T04:32:50;34.10;;;17.70;;
10645;SDS011;5371;49.782;9.932;2024-03-08T04:35:18;35.87;;;18.20;;
10645;SDS011;5371;49.782;9.932;2024-03-08T04:37:47;32.67;;;16.93;;
10645;SDS011;5371;49.782;9.932;2024-03-08T04:40:14;32.07;;;17.57;;
10645;SDS011;5371;49.782;9.932;2024-03-08T04:42:41;37.40;;;18.97;;
10645;SDS011;5371;49.782;9.932;2024-03-08T04:45:09;31.77;;;18.13;;
10645;SDS011;5371;49.782;9.932;2024-03-08T04:47:37;31.70;;;17.43;;
10645;SDS011;5371;49.782;9.932;2024-03-08T04:50:05;32.90;;;17.83;;
10645;SDS011;5371;49.782;9.932;2024-03-08T04:52:34;34.33;;;18.23;;
10645;SDS011;5371;49.782;9.932;2024-03-08T04:55:03;32.23;;;17.73;;
10645;SDS011;5371;49.782;9.932;2024-03-08T04:57:31;31.63;;;17.77;;
10645;SDS011;5371;49.782;9.932;2024-03-08T04:59:58;34.37;;;18.20;;
10645;SDS011;5371;49.782;9.932;2024-03-08T05:02:25;32.70;;;18.50;;
10645;SDS011;5371;49.782;9.932;2024-03-08T05:04:52;34.60;;;18.23;;
10645;SDS011;5371;49.782;9.932;2024-03-08T05:07:20;31.20;;;17.93;;
10645;SDS011;5371;49.782;9.932;2024-03-08T05:09:47;33.83;;;17.67;;
10645;SDS011;5371;49.782;9.932;2024-03-08T05:12:18;32.10;;;18.00;;
10645;SDS011;5371;49.782;9.932;2024-03-08T05:14:45;32.23;;;17.83;;
10645;SDS011;5371;49.782;9.932;2024-03-08T05:17:15;33.37;;;17.83;;
10645;SDS011;5371;49.782;9.932;2024-03-08T05:19:42;29.83;;;17.50;;
10645;SDS011;5371;49.782;9.932;2024-03-08T05:22:09;33.03;;;18.20;;
10645;SDS011;5371;49.782;9.932;2024-03-08T05:24:37;36.83;;;18.23;;
10645;SDS011;5371;49.782;9.932;2024-03-08T05:29:57;32.33;;;18.30;;
10645;SDS011;5371;49.782;9.932;2024-03-08T05:32:25;33.67;;;17.67;;
10645;SDS011;5371;49.782;9.932;2024-03-08T05:34:52;33.27;;;18.30;;
10645;SDS011;5371;49.782;9.932;2024-03-08T05:37:19;33.60;;;17.73;;
10645;SDS011;5371;49.782;9.932;2024-03-08T05:39:46;35.57;;;19.47;;
10645;SDS011;5371;49.782;9.932;2024-03-08T05:42:13;32.73;;;18.57;;
10645;SDS011;5371;49.782;9.932;2024-03-08T05:44:42;34.97;;;18.03;;
10645;SDS011;5371;49.782;9.932;2024-03-08T05:47:09;33.20;;;18.17;;
10645;SDS011;5371;49.782;9.932;2024-03-08T05:49:36;32.10;;;17.57;;
10645;SDS011;5371;49.782;9.932;2024-03-08T05:52:07;35.63;;;17.37;;
10645;SDS011;5371;49.782;9.932;2024-03-08T05:54:35;34.83;;;18.80;;
10645;SDS011;5371;49.782;9.932;2024-03-08T05:57:07;36.27;;;18.87;;
10645;SDS011;5371;49.782;9.932;2024-03-08T05:59:34;34.23;;;18.60;;
10645;SDS011;5371;49.782;9.932;2024-03-08T06:02:03;34.90;;;19.47;;
10645;SDS011;5371;49.782;9.932;2024-03-08T06:04:30;36.00;;;18.67;;
10645;SDS011;5371;49.782;9.932;2024-03-08T06:06:57;39.77;;;19.57;;
10645;SDS011;5371;49.782;9.932;2024-03-08T06:09:25;33.07;;;17.93;;
10645;SDS011;5371;49.782;9.932;2024-03-08T06:11:56;36.27;;;19.13;;
10645;SDS011;5371;49.782;9.932;2024-03-08T06:14:27;33.70;;;18.67;;
10645;SDS011;5371;49.782;9.932;2024-03-08T06:16:54;32.40;;;18.57;;
10645;SDS011;5371;49.782;9.932;2024-03-08T06:19:23;33.47;;;19.20;;
10645;SDS011;5371;49.782;9.932;2024-03-08T06:21:50;32.57;;;18.53;;
10645;SDS011;5371;49.782;9.932;2024-03-08T06:24:17;34.00;;;18.30;;
10645;SDS011;5371;49.782;9.932;2024-03-08T06:26:45;35.73;;;19.57;;
10645;SDS011;5371;49.782;9.932;2024-03-08T06:29:12;30.17;;;17.93;;
10645;SDS011;5371;49.782;9.932;2024-03-08T06:31:41;35.87;;;18.93;;
10645;SDS011;5371;49.782;9.932;2024-03-08T06:34:15;33.50;;;19.90;;
10645;SDS011;5371;49.782;9.932;2024-03-08T06:36:44;36.60;;;19.60;;
10645;SDS011;5371;49.782;9.932;2024-03-08T06:39:11;35.80;;;19.57;;
10645;SDS011;5371;49.782;9.932;2024-03-08T06:41:38;32.73;;;17.40;;
10645;SDS011;5371;49.782;9.932;2024-03-08T06:44:06;32.80;;;18.67;;
10645;SDS011;5371;49.782;9.932;2024-03-08T06:46:34;35.00;;;19.63;;
10645;SDS011;5371;49.782;9.932;2024-03-08T06:49:01;34.87;;;19.90;;
10645;SDS011;5371;49.782;9.932;2024-03-08T06:51:28;35.73;;;18.73;;
10645;SDS011;5371;49.782;9.932;2024-03-08T06:53:57;32.40;;;18.70;;
10645;SDS011;5371;49.782;9.932;2024-03-08T06:56:25;35.90;;;18.97;;
10645;SDS011;5371;49.782;9.932;2024-03-08T06:58:55;35.37;;;18.27;;
10645;SDS011;5371;49.782;9.932;2024-03-08T07:01:24;34.43;;;18.47;;
10645;SDS011;5371;49.782;9.932;2024-03-08T07:03:51;32.37;;;18.90;;
10645;SDS011;5371;49.782;9.932;2024-03-08T07:06:19;36.77;;;19.43;;
10645;SDS011;5371;49.782;9.932;2024-03-08T07:08:46;34.77;;;18.90;;
10645;SDS011;5371;49.782;9.932;2024-03-08T07:11:15;33.53;;;18.93;;
10645;SDS011;5371;49.782;9.932;2024-03-08T07:13:44;31.07;;;18.87;;
10645;SDS011;5371;49.782;9.932;2024-03-08T07:16:11;33.47;;;18.23;;
10645;SDS011;5371;49.782;9.932;2024-03-08T07:18:38;31.17;;;18.73;;
10645;SDS011;5371;49.782;9.932;2024-03-08T07:21:08;35.43;;;19.77;;
10645;SDS011;5371;49.782;9.932;2024-03-08T07:23:36;32.90;;;18.00;;
10645;SDS011;5371;49.782;9.932;2024-03-08T07:26:21;35.60;;;18.47;;
10645;SDS011;5371;49.782;9.932;2024-03-08T07:28:48;28.70;;;17.83;;
10645;SDS011;5371;49.782;9.932;2024-03-08T07:31:16;37.30;;;19.43;;
10645;SDS011;5371;49.782;9.932;2024-03-08T07:33:49;34.17;;;18.30;;
10645;SDS011;5371;49.782;9.932;2024-03-08T07:36:18;30.87;;;17.90;;
10645;SDS011;5371;49.782;9.932;2024-03-08T07:38:45;28.37;;;16.77;;
10645;SDS011;5371;49.782;9.932;2024-03-08T07:41:12;28.57;;;17.47;;
10645;SDS011;5371;49.782;9.932;2024-03-08T07:43:41;29.17;;;17.83;;
10645;SDS011;5371;49.782;9.932;2024-03-08T07:46:11;30.17;;;18.03;;
10645;SDS011;5371;49.782;9.932;2024-03-08T07:48:38;29.53;;;17.87;;
10645;SDS011;5371;49.782;9.932;2024-03-08T07:51:06;30.67;;;18.07;;
10645;SDS011;5371;49.782;9.932;2024-03-08T07:53:34;27.77;;;17.27;;
10645;SDS011;5371;49.782;9.932;2024-03-08T07:56:03;29.97;;;18.87;;
10645;SDS011;5371;49.782;9.932;2024-03-08T07:58:32;33.37;;;17.87;;
10645;SDS011;5371;49.782;9.932;2024-03-08T08:01:01;28.63;;;17.60;;
10645;SDS011;5371;49.782;9.932;2024-03-08T08:03:30;30.37;;;18.73;;
10645;SDS011;5371;49.782;9.932;2024-03-08T08:05:57;28.17;;;18.70;;
10645;SDS011;5371;49.782;9.932;2024-03-08T08:08:24;35.83;;;18.37;;
10645;SDS011;5371;49.782;9.932;2024-03-08T08:10:52;29.60;;;17.47;;
10645;SDS011;5371;49.782;9.932;2024-03-08T08:13:19;27.77;;;16.83;;
10645;SDS011;5371;49.782;9.932;2024-03-08T08:15:46;30.00;;;17.37;;
10645;SDS011;5371;49.782;9.932;2024-03-08T08:18:17;31.07;;;17.97;;
10645;SDS011;5371;49.782;9.932;2024-03-08T08:20:47;29.03;;;17.93;;
10645;SDS011;5371;49.782;9.932;2024-03-08T08:23:16;30.20;;;17.23;;
10645;SDS011;5371;49.782;9.932;2024-03-08T08:25:46;29.43;;;17.70;;
10645;SDS011;5371;49.782;9.932;2024-03-08T08:28:15;30.53;;;18.23;;
10645;SDS011;5371;49.782;9.932;2024-03-08T08:30:44;29.13;;;18.00;;
10645;SDS011;5371;49.782;9.932;2024-03-08T08:33:12;29.07;;;18.53;;
10645;SDS011;5371;49.782;9.932;2024-03-08T08:35:41;31.33;;;18.07;;
10645;SDS011;5371;49.782;9.932;2024-03-08T08:38:09;27.87;;;17.30;;
10645;SDS011;5371;49.782;9.932;2024-03-08T08:40:38;28.00;;;17.40;;
10645;SDS011;5371;49.782;9.932;2024-03-08T08:43:08;27.90;;;17.27;;
10645;SDS011;5371;49.782;9.932;2024-03-08T08:45:35;29.33;;;17.83;;
10645;SDS011;5371;49.782;9.932;2024-03-08T08:48:04;32.17;;;17.57;;
10645;SDS011;5371;49.782;9.932;2024-03-08T08:50:32;29.73;;;17.90;;
10645;SDS011;5371;49.782;9.932;2024-03-08T08:53:00;28.27;;;18.23;;
10645;SDS011;5371;49.782;9.932;2024-03-08T08:55:29;24.37;;;17.40;;
10645;SDS011;5371;49.782;9.932;2024-03-08T08:57:56;27.95;;;17.05;;
10645;SDS011;5371;49.782;9.932;2024-03-08T09:00:23;30.48;;;17.95;;
10645;SDS011;5371;49.782;9.932;2024-03-08T09:02:53;25.73;;;16.83;;
10645;SDS011;5371;49.782;9.932;2024-03-08T09:05:23;28.58;;;17.25;;
10645;SDS011;5371;49.782;9.932;2024-03-08T09:07:51;25.53;;;16.53;;
10645;SDS011;5371;49.782;9.932;2024-03-08T09:10:20;25.30;;;15.88;;
10645;SDS011;5371;49.782;9.932;2024-03-08T09:12:47;28.10;;;16.17;;
10645;SDS011;5371;49.782;9.932;2024-03-08T09:15:14;23.77;;;15.30;;
10645;SDS011;5371;49.782;9.932;2024-03-08T09:17:43;23.83;;;15.63;;
10645;SDS011;5371;49.782;9.932;2024-03-08T09:20:10;22.60;;;15.13;;
10645;SDS011;5371;49.782;9.932;2024-03-08T09:22:40;29.63;;;16.00;;
10645;SDS011;5371;49.782;9.932;2024-03-08T09:25:08;25.10;;;15.37;;
10645;SDS011;5371;49.782;9.932;2024-03-08T09:27:36;23.43;;;15.37;;
10645;SDS011;5371;49.782;9.932;2024-03-08T09:30:05;23.95;;;15.02;;
10645;SDS011;5371;49.782;9.932;2024-03-08T09:32:33;24.33;;;15.43;;
10645;SDS011;5371;49.782;9.932;2024-03-08T09:35:00;24.85;;;15.25;;
10645;SDS011;5371;49.782;9.932;2024-03-08T09:37:28;22.53;;;13.77;;
10645;SDS011;5371;49.782;9.932;2024-03-08T09:39:56;22.42;;;14.65;;
10645;SDS011;5371;49.782;9.932;2024-03-08T09:42:24;22.80;;;14.60;;
10645;SDS011;5371;49.782;9.932;2024-03-08T09:44:52;20.30;;;13.75;;
10645;SDS011;5371;49.782;9.932;2024-03-08T09:47:20;21.73;;;13.85;;
10645;SDS011;5371;49.782;9.932;2024-03-08T09:49:49;25.15;;;15.02;;
10645;SDS011;5371;49.782;9.932;2024-03-08T09:52:16;21.33;;;14.13;;
10645;SDS011;5371;49.782;9.932;2024-03-08T09:54:43;22.17;;;13.65;;
10645;SDS011;5371;49.782;9.932;2024-03-08T09:57:11;24.08;;;13.88;;
10645;SDS011;5371;49.782;9.932;2024-03-08T09:59:38;22.45;;;14.00;;
10645;SDS011;5371;49.782;9.932;2024-03-08T10:02:15;21.30;;;13.90;;
10645;SDS011;5371;49.782;9.932;2024-03-08T10:04:44;23.48;;;14.23;;
10645;SDS011;5371;49.782;9.932;2024-03-08T10:07:13;21.67;;;14.50;;
10645;SDS011;5371;49.782;9.932;2024-03-08T10:09:40;21.13;;;13.77;;
10645;SDS011;5371;49.782;9.932;2024-03-08T10:12:12;21.95;;;14.25;;
10645;SDS011;5371;49.782;9.932;2024-03-08T10:14:40;23.27;;;14.10;;
10645;SDS011;5371;49.782;9.932;2024-03-08T10:17:08;19.02;;;13.43;;
10645;SDS011;5371;49.782;9.932;2024-03-08T10:19:36;20.63;;;13.13;;
10645;SDS011;5371;49.782;9.932;2024-03-08T10:22:04;21.23;;;13.52;;
10645;SDS011;5371;49.782;9.932;2024-03-08T10:24:32;20.67;;;14.07;;
10645;SDS011;5371;49.782;9.932;2024-03-08T10:27:00;22.48;;;14.40;;
10645;SDS011;5371;49.782;9.932;2024-03-08T10:29:30;22.45;;;13.93;;
10645;SDS011;5371;49.782;9.932;2024-03-08T10:31:58;19.90;;;13.57;;
10645;SDS011;5371;49.782;9.932;2024-03-08T10:34:25;24.30;;;14.30;;
10645;SDS011;5371;49.782;9.932;2024-03-08T10:36:54;21.90;;;14.35;;
10645;SDS011;5371;49.782;9.932;2024-03-08T10:39:26;20.90;;;14.30;;
10645;SDS011;5371;49.782;9.932;2024-03-08T10:41:56;21.42;;;14.05;;
10645;SDS011;5371;49.782;9.932;2024-03-08T10:47:15;19.95;;;13.98;;
10645;SDS011;5371;49.782;9.932;2024-03-08T10:49:49;24.63;;;15.25;;
10645;SDS011;5371;49.782;9.932;2024-03-08T10:52:20;21.65;;;14.68;;
10645;SDS011;5371;49.782;9.932;2024-03-08T10:54:47;20.02;;;14.32;;
10645;SDS011;5371;49.782;9.932;2024-03-08T10:57:17;23.08;;;14.70;;
10645;SDS011;5371;49.782;9.932;2024-03-08T10:59:49;21.73;;;14.32;;
10645;SDS011;5371;49.782;9.932;2024-03-08T11:02:17;20.75;;;14.50;;
10645;SDS011;5371;49.782;9.932;2024-03-08T11:04:46;21.98;;;13.98;;
10645;SDS011;5371;49.782;9.932;2024-03-08T11:07:14;21.52;;;14.13;;
10645;SDS011;5371;49.782;9.932;2024-03-08T11:09:46;21.25;;;14.73;;
10645;SDS011;5371;49.782;9.932;2024-03-08T11:12:21;22.30;;;14.13;;
10645;SDS011;5371;49.782;9.932;2024-03-08T11:14:51;21.00;;;14.38;;
10645;SDS011;5371;49.782;9.932;2024-03-08T11:17:25;23.13;;;14.68;;
10645;SDS011;5371;49.782;9.932;2024-03-08T11:20:11;20.30;;;14.27;;
10645;SDS011;5371;49.782;9.932;2024-03-08T11:22:42;20.85;;;13.60;;
10645;SDS011;5371;49.782;9.932;2024-03-08T11:25:34;20.90;;;14.70;;
10645;SDS011;5371;49.782;9.932;2024-03-08T11:28:14;23.17;;;14.27;;
10645;SDS011;5371;49.782;9.932;2024-03-08T11:30:46;20.80;;;14.07;;
10645;SDS011;5371;49.782;9.932;2024-03-08T11:33:16;21.35;;;13.98;;
10645;SDS011;5371;49.782;9.932;2024-03-08T11:35:44;22.65;;;13.95;;
10645;SDS011;5371;49.782;9.932;2024-03-08T11:38:14;21.17;;;13.80;;
10645;SDS011;5371;49.782;9.932;2024-03-08T11:40:44;20.67;;;14.07;;
10645;SDS011;5371;49.782;9.932;2024-03-08T11:43:16;19.80;;;13.68;;
10645;SDS011;5371;49.782;9.932;2024-03-08T11:45:43;20.77;;;15.02;;
10645;SDS011;5371;49.782;9.932;2024-03-08T11:48:10;23.48;;;14.57;;
10645;SDS011;5371;49.782;9.932;2024-03-08T11:50:38;22.05;;;14.30;;
10645;SDS011;5371;49.782;9.932;2024-03-08T11:53:05;22.05;;;14.43;;
10645;SDS011;5371;49.782;9.932;2024-03-08T11:55:35;24.45;;;15.23;;
10645;SDS011;5371;49.782;9.932;2024-03-08T11:58:04;24.25;;;15.57;;
10645;SDS011;5371;49.782;9.932;2024-03-08T12:00:36;20.35;;;13.73;;
10645;SDS011;5371;49.782;9.932;2024-03-08T12:03:07;21.30;;;13.93;;
10645;SDS011;5371;49.782;9.932;2024-03-08T12:05:36;22.42;;;14.65;;
10645;SDS011;5371;49.782;9.932;2024-03-08T12:08:03;24.38;;;14.63;;
10645;SDS011;5371;49.782;9.932;2024-03-08T12:10:32;19.23;;;13.25;;
10645;SDS011;5371;49.782;9.932;2024-03-08T12:13:01;19.45;;;12.60;;
10645;SDS011;5371;49.782;9.932;2024-03-08T12:15:30;20.95;;;13.13;;
10645;SDS011;5371;49.782;9.932;2024-03-08T12:17:59;23.17;;;13.82;;
10645;SDS011;5371;49.782;9.932;2024-03-08T12:20:27;18.60;;;13.65;;
10645;SDS011;5371;49.782;9.932;2024-03-08T12:22:56;18.30;;;12.43;;
10645;SDS011;5371;49.782;9.932;2024-03-08T12:25:26;17.77;;;11.88;;
10645;SDS011;5371;49.782;9.932;2024-03-08T12:27:57;26.08;;;14.45;;
10645;SDS011;5371;49.782;9.932;2024-03-08T12:30:36;19.75;;;12.65;;
10645;SDS011;5371;49.782;9.932;2024-03-08T12:33:12;20.60;;;14.20;;
10645;SDS011;5371;49.782;9.932;2024-03-08T12:35:40;20.55;;;12.93;;
10645;SDS011;5371;49.782;9.932;2024-03-08T12:38:08;21.73;;;13.63;;
10645;SDS011;5371;49.782;9.932;2024-03-08T12:40:36;20.65;;;13.05;;
10645;SDS011;5371;49.782;9.932;2024-03-08T12:43:07;19.38;;;11.82;;
10645;SDS011;5371;49.782;9.932;2024-03-08T12:45:36;18.60;;;12.00;;
10645;SDS011;5371;49.782;9.932;2024-03-08T12:48:04;19.00;;;11.13;;
10645;SDS011;5371;49.782;9.932;2024-03-08T12:50:40;20.10;;;12.57;;
10645;SDS011;5371;49.782;9.932;2024-03-08T12:53:10;19.20;;;11.90;;
10645;SDS011;5371;49.782;9.932;2024-03-08T12:55:38;20.13;;;11.75;;
10645;SDS011;5371;49.782;9.932;2024-03-08T12:58:06;18.95;;;12.30;;
10645;SDS011;5371;49.782;9.932;2024-03-08T13:00:34;17.13;;;10.82;;
10645;SDS011;5371;49.782;9.932;2024-03-08T13:03:10;18.48;;;11.30;;
10645;SDS011;5371;49.782;9.932;2024-03-08T13:05:42;17.48;;;12.35;;
10645;SDS011;5371;49.782;9.932;2024-03-08T13:08:09;18.20;;;12.60;;
10645;SDS011;5371;49.782;9.932;2024-03-08T13:10:39;18.33;;;10.77;;
10645;SDS011;5371;49.782;9.932;2024-03-08T13:13:08;16.30;;;10.55;;
10645;SDS011;5371;49.782;9.932;2024-03-08T13:15:38;16.25;;;11.23;;
10645;SDS011;5371;49.782;9.932;2024-03-08T13:18:07;17.50;;;11.48;;
10645;SDS011;5371;49.782;9.932;2024-03-08T13:20:36;18.05;;;11.80;;
10645;SDS011;5371;49.782;9.932;2024-03-08T13:23:03;19.60;;;11.85;;
10645;SDS011;5371;49.782;9.932;2024-03-08T13:25:30;21.30;;;12.68;;
10645;SDS011;5371;49.782;9.932;2024-03-08T13:27:58;17.63;;;11.60;;
10645;SDS011;5371;49.782;9.932;2024-03-08T13:30:26;16.90;;;11.20;;
10645;SDS011;5371;49.782;9.932;2024-03-08T13:32:54;17.50;;;11.27;;
10645;SDS011;5371;49.782;9.932;2024-03-08T13:35:22;17.42;;;10.18;;
10645;SDS011;5371;49.782;9.932;2024-03-08T13:37:52;15.35;;;9.75;;
10645;SDS011;5371;49.782;9.932;2024-03-08T13:40:19;13.85;;;9.80;;
10645;SDS011;5371;49.782;9.932;2024-03-08T13:42:47;16.77;;;10.88;;
10645;SDS011;5371;49.782;9.932;2024-03-08T13:45:14;14.77;;;10.07;;
10645;SDS011;5371;49.782;9.932;2024-03-08T13:47:47;15.50;;;9.10;;
10645;SDS011;5371;49.782;9.932;2024-03-08T13:50:18;12.48;;;8.68;;
10645;SDS011;5371;49.782;9.932;2024-03-08T13:52:46;13.10;;;9.25;;
10645;SDS011;5371;49.782;9.932;2024-03-08T13:55:16;12.75;;;8.45;;
10645;SDS011;5371;49.782;9.932;2024-03-08T13:57:43;15.82;;;9.00;;
10645;SDS011;5371;49.782;9.932;2024-03-08T14:00:12;14.20;;;9.50;;
10645;SDS011;5371;49.782;9.932;2024-03-08T14:02:40;14.88;;;9.90;;
10645;SDS011;5371;49.782;9.932;2024-03-08T14:05:10;11.82;;;8.35;;
10645;SDS011;5371;49.782;9.932;2024-03-08T14:07:41;14.40;;;9.50;;
10645;SDS011;5371;49.782;9.932;2024-03-08T14:10:11;12.75;;;8.98;;
10645;SDS011;5371;49.782;9.932;2024-03-08T14:12:38;13.70;;;9.35;;
10645;SDS011;5371;49.782;9.932;2024-03-08T14:15:09;15.10;;;9.70;;
10645;SDS011;5371;49.782;9.932;2024-03-08T14:17:38;15.35;;;9.57;;
10645;SDS011;5371;49.782;9.932;2024-03-08T14:20:05;13.07;;;9.60;;
10645;SDS011;5371;49.782;9.932;2024-03-08T14:22:35;12.90;;;8.27;;
10645;SDS011;5371;49.782;9.932;2024-03-08T14:25:04;11.82;;;7.72;;
10645;SDS011;5371;49.782;9.932;2024-03-08T14:27:42;13.32;;;7.65;;
10645;SDS011;5371;49.782;9.932;2024-03-08T14:30:10;12.82;;;7.70;;
10645;SDS011;5371;49.782;9.932;2024-03-08T14:32:37;10.27;;;7.18;;
10645;SDS011;5371;49.782;9.932;2024-03-08T14:35:05;10.57;;;7.00;;
10645;SDS011;5371;49.782;9.932;2024-03-08T14:37:32;12.75;;;8.35;;
10645;SDS011;5371;49.782;9.932;2024-03-08T14:39:59;11.48;;;7.90;;
10645;SDS011;5371;49.782;9.932;2024-03-08T14:42:28;11.88;;;8.00;;
10645;SDS011;5371;49.782;9.932;2024-03-08T14:44:55;12.68;;;8.80;;
10645;SDS011;5371;49.782;9.932;2024-03-08T14:47:25;13.98;;;8.65;;
10645;SDS011;5371;49.782;9.932;2024-03-08T14:49:53;13.65;;;8.98;;